Quailtown, Indiana
Current Conditions -  °F | °C
As of 1:13 PM on Monday 26 Jan 2015 (Local Time) from KIMS Reporting Station
Broken Clouds Broken Clouds  
Wind Chill: 25°   Ceiling: 2200
Heat Index: 32°   Visibility: 10mi
Dew Point: 21°   Wind: 8mph
Humidity: 64%   Direction: 290°WNW
Pressure: 29.94"   Gusts: NA
Location:  39.1743°N, 85.6083°W
Report Text: KIMS 261813Z AUTO 29007KT 10SM BKN022 00/M06 A2994 RMK AO1
Loading
Personal Weather Stations






























Interactive Weather Map New forecast layout! Learn more

10-Day Weather Forecast

Advertisements
Track Severe Weather on mobile